Time;durP1;ratioP1;P1;durP2;ratioP2;P2;SDS_P1;SDS_P2;PMS_P1;PMS_P2;Temp;Humidity;BMP_temperature;BMP_pressure;BME280_temperature;BME280_humidity;BME280_pressure;Samples;Min_cycle;Max_cycle;Signal;HPM_P1;HPM_P2
2023/05/10 00:00:22;;;;;;;1.10;0.50;;;12.40;99.90;;;;;;4989959;28;20200;-65
2023/05/10 00:02:48;;;;;;;1.30;0.70;;;12.40;99.90;;;;;;4975260;28;20219;-66
2023/05/10 00:05:13;;;;;;;1.20;0.60;;;12.40;99.90;;;;;;4971553;28;20431;-65
2023/05/10 00:07:39;;;;;;;1.50;0.70;;;12.50;99.90;;;;;;4972570;28;20196;-65
2023/05/10 00:10:05;;;;;;;1.40;0.70;;;12.50;99.90;;;;;;4990662;28;20192;-65
2023/05/10 00:12:31;;;;;;;1.50;0.60;;;12.50;99.90;;;;;;4978846;28;20222;-65
2023/05/10 00:14:56;;;;;;;1.40;0.60;;;12.40;99.90;;;;;;4970933;28;20435;-65
2023/05/10 00:17:22;;;;;;;1.47;0.70;;;12.40;99.90;;;;;;4973951;28;20200;-65
2023/05/10 00:19:48;;;;;;;1.10;0.47;;;12.40;99.90;;;;;;4970189;28;20192;-65
2023/05/10 00:22:13;;;;;;;1.30;0.67;;;12.30;99.90;;;;;;4971584;28;20239;-65
2023/05/10 00:24:39;;;;;;;1.10;0.40;;;12.30;99.90;;;;;;4984190;28;20192;-66
2023/05/10 00:27:05;;;;;;;1.10;0.40;;;12.20;99.90;;;;;;4984635;28;20191;-66
2023/05/10 00:29:31;;;;;;;2.23;0.60;;;12.20;99.90;;;;;;4990488;28;20431;-66
2023/05/10 00:31:57;;;;;;;1.10;0.50;;;12.10;99.90;;;;;;4990848;28;20793;-67
2023/05/10 00:34:22;;;;;;;1.10;0.50;;;12.10;99.90;;;;;;4985318;28;20432;-67
2023/05/10 00:36:48;;;;;;;1.20;0.50;;;12.10;99.90;;;;;;4971744;28;20192;-66
2023/05/10 00:39:14;;;;;;;3.00;0.70;;;12.10;99.90;;;;;;4977065;28;20225;-67
2023/05/10 00:41:39;;;;;;;1.10;0.40;;;12.10;99.90;;;;;;4971503;28;20188;-66
2023/05/10 00:44:05;;;;;;;1.30;0.60;;;12.10;99.90;;;;;;4984569;28;20474;-67
2023/05/10 00:46:31;;;;;;;1.10;0.40;;;12.10;99.90;;;;;;4983183;28;20219;-66
2023/05/10 00:48:57;;;;;;;1.43;0.70;;;12.10;99.90;;;;;;4978333;28;20664;-66
2023/05/10 00:51:23;;;;;;;1.20;0.50;;;12.10;99.90;;;;;;4979726;28;20471;-66
2023/05/10 00:53:49;;;;;;;1.30;0.60;;;12.00;99.90;;;;;;4971475;28;20424;-66
2023/05/10 00:56:15;;;;;;;1.10;0.40;;;12.00;99.90;;;;;;4983134;28;20187;-67
2023/05/10 00:58:41;;;;;;;1.10;0.47;;;12.10;99.90;;;;;;4972506;28;20487;-67
2023/05/10 01:01:08;;;;;;;1.10;0.40;;;12.00;99.90;;;;;;4968820;28;20444;-68
2023/05/10 01:03:35;;;;;;;1.10;0.40;;;12.00;99.90;;;;;;4976219;28;20426;-68
2023/05/10 01:06:01;;;;;;;1.10;0.50;;;12.00;99.90;;;;;;4990507;28;20462;-68
2023/05/10 01:08:27;;;;;;;1.10;0.50;;;12.00;99.90;;;;;;4982913;28;20481;-67
2023/05/10 01:10:54;;;;;;;1.20;0.50;;;12.00;99.90;;;;;;4990560;28;20246;-67
2023/05/10 01:13:39;;;;;;;1.27;0.50;;;12.00;99.90;;;;;;4977029;28;20423;-68
2023/05/10 01:16:06;;;;;;;1.10;0.50;;;12.00;99.90;;;;;;4976104;28;20434;-67
2023/05/10 01:18:36;;;;;;;1.20;0.50;;;11.90;99.90;;;;;;4979986;28;20598;-67
2023/05/10 01:21:27;;;;;;;1.10;0.40;;;12.00;99.90;;;;;;4973672;28;20446;-67
2023/05/10 01:24:40;;;;;;;1.30;0.60;;;11.90;99.90;;;;;;4974636;28;20440;-67
2023/05/10 01:27:11;;;;;;;1.10;0.50;;;12.00;99.90;;;;;;4927843;28;20498;-67
2023/05/10 01:30:22;;;;;;;3.30;0.70;;;11.90;99.90;;;;;;4981617;28;20431;-68
2023/05/10 01:33:18;;;;;;;1.10;0.40;;;11.90;99.90;;;;;;4951120;28;20526;-67
2023/05/10 01:36:15;;;;;;;1.17;0.53;;;11.90;99.90;;;;;;4976849;28;20487;-67
2023/05/10 01:38:52;;;;;;;1.20;0.50;;;11.80;99.90;;;;;;4975000;28;20904;-67
2023/05/10 01:41:41;;;;;;;1.20;0.50;;;11.80;99.90;;;;;;4974039;28;20498;-67
2023/05/10 01:44:12;;;;;;;1.10;0.40;;;11.80;99.90;;;;;;4993453;28;20429;-67
2023/05/10 01:46:39;;;;;;;1.10;0.40;;;11.80;99.90;;;;;;4980861;28;20434;-67
2023/05/10 01:49:19;;;;;;;1.10;0.50;;;11.80;99.90;;;;;;4980325;28;20528;-67
2023/05/10 01:51:51;;;;;;;1.43;0.60;;;11.80;99.90;;;;;;4976724;28;20475;-67
2023/05/10 01:54:20;;;;;;;1.30;0.60;;;11.80;99.90;;;;;;4974560;28;20486;-67
2023/05/10 01:56:50;;;;;;;1.10;0.50;;;11.80;99.90;;;;;;4987648;28;20920;-67
2023/05/10 01:59:18;;;;;;;1.10;0.50;;;11.80;99.90;;;;;;4973941;28;20420;-67
2023/05/10 02:01:46;;;;;;;1.17;0.50;;;11.70;99.90;;;;;;4973964;28;20431;-67
2023/05/10 02:04:16;;;;;;;1.20;0.50;;;11.70;99.90;;;;;;4985245;28;20423;-67
2023/05/10 02:06:43;;;;;;;1.30;0.47;;;11.70;99.90;;;;;;4980054;28;20451;-67
2023/05/10 02:09:11;;;;;;;1.10;0.50;;;11.70;99.90;;;;;;4980545;28;20427;-67
2023/05/10 02:11:38;;;;;;;1.60;1.00;;;11.70;99.90;;;;;;4979569;28;20566;-67
2023/05/10 02:14:09;;;;;;;1.10;0.40;;;11.70;99.90;;;;;;4980596;28;20432;-67
2023/05/10 02:16:36;;;;;;;1.30;0.60;;;11.70;99.90;;;;;;4969130;28;20412;-67
2023/05/10 02:19:03;;;;;;;1.50;0.70;;;11.70;99.90;;;;;;4978710;28;20428;-67
2023/05/10 02:21:31;;;;;;;1.20;0.50;;;11.60;99.90;;;;;;4980403;28;20427;-67
2023/05/10 02:23:57;;;;;;;1.97;0.70;;;11.60;99.90;;;;;;4979473;28;20483;-67
2023/05/10 02:26:25;;;;;;;1.20;0.50;;;11.60;99.90;;;;;;4974033;28;20431;-67
2023/05/10 02:28:52;;;;;;;1.97;0.57;;;11.60;99.90;;;;;;4973480;28;20452;-67
2023/05/10 02:31:19;;;;;;;1.30;0.60;;;11.50;99.90;;;;;;4983570;28;20812;-67
2023/05/10 02:33:46;;;;;;;1.20;0.60;;;11.50;99.90;;;;;;4986438;28;20763;-67
2023/05/10 02:36:13;;;;;;;1.20;0.47;;;11.40;99.90;;;;;;4980648;28;20430;-67
2023/05/10 02:38:39;;;;;;;1.20;0.50;;;11.40;99.90;;;;;;4978711;28;20456;-67
2023/05/10 02:41:07;;;;;;;1.33;0.50;;;11.50;99.90;;;;;;4973345;28;20439;-67
2023/05/10 02:43:35;;;;;;;1.30;0.60;;;11.40;99.90;;;;;;4974544;28;20432;-67
2023/05/10 02:46:01;;;;;;;1.20;0.60;;;11.40;99.90;;;;;;4984747;28;20430;-67
2023/05/10 02:48:26;;;;;;;2.47;0.93;;;11.40;99.90;;;;;;4972120;28;20801;-67
2023/05/10 02:50:55;;;;;;;1.30;0.70;;;11.40;99.90;;;;;;4981180;28;20462;-67
2023/05/10 02:53:28;;;;;;;1.33;0.57;;;11.30;99.90;;;;;;4979170;28;20272;-67
2023/05/10 02:55:59;;;;;;;1.10;0.50;;;11.30;99.90;;;;;;4989362;28;20545;-67
2023/05/10 02:58:25;;;;;;;1.20;0.60;;;11.40;99.90;;;;;;4972522;28;20509;-67
2023/05/10 03:00:50;;;;;;;1.20;0.50;;;11.30;99.90;;;;;;4978763;28;20861;-67
2023/05/10 03:03:16;;;;;;;1.20;0.60;;;11.30;99.90;;;;;;4973137;28;20263;-67
2023/05/10 03:05:42;;;;;;;1.40;0.60;;;11.30;99.90;;;;;;4982705;28;20200;-67
2023/05/10 03:08:08;;;;;;;1.20;0.60;;;11.30;99.90;;;;;;4979858;28;20184;-67
2023/05/10 03:10:41;;;;;;;1.60;0.67;;;11.30;99.90;;;;;;4992585;28;20183;-67
2023/05/10 03:13:20;;;;;;;1.20;0.50;;;11.30;99.90;;;;;;4974862;28;20424;-67
2023/05/10 03:15:51;;;;;;;1.93;0.80;;;11.30;99.90;;;;;;4972893;28;20466;-67
2023/05/10 03:18:36;;;;;;;1.87;0.80;;;11.30;99.90;;;;;;4978170;28;20445;-67
2023/05/10 03:21:07;;;;;;;1.20;0.60;;;11.30;99.90;;;;;;4989020;28;20447;-67
2023/05/10 03:23:40;;;;;;;1.20;0.60;;;11.30;99.90;;;;;;4992059;28;20886;-67
2023/05/10 03:26:07;;;;;;;1.20;0.60;;;11.30;99.90;;;;;;4966143;28;20460;-67
2023/05/10 03:28:35;;;;;;;1.63;0.83;;;11.30;99.90;;;;;;4973036;28;20508;-67
2023/05/10 03:31:03;;;;;;;1.17;0.60;;;11.20;99.90;;;;;;4978692;28;20465;-67
2023/05/10 03:33:29;;;;;;;1.50;0.80;;;11.10;99.90;;;;;;4991897;28;20478;-67
2023/05/10 03:35:54;;;;;;;1.40;0.50;;;11.20;99.90;;;;;;4991509;28;20430;-66
2023/05/10 03:38:20;;;;;;;1.20;0.53;;;11.10;99.90;;;;;;4979705;28;20183;-67
2023/05/10 03:40:45;;;;;;;1.23;0.60;;;11.20;99.90;;;;;;4971739;28;20270;-67
2023/05/10 03:43:11;;;;;;;1.37;0.70;;;11.20;99.90;;;;;;4972439;28;20692;-66
2023/05/10 03:45:37;;;;;;;1.50;0.73;;;11.20;99.90;;;;;;4978199;28;20274;-66
2023/05/10 03:48:02;;;;;;;1.70;0.70;;;11.10;99.90;;;;;;4990744;28;20199;-66
2023/05/10 03:50:28;;;;;;;1.67;0.80;;;11.20;99.90;;;;;;4973156;28;20342;-65
2023/05/10 03:52:54;;;;;;;1.40;0.77;;;11.20;99.90;;;;;;4972677;28;20196;-65
2023/05/10 03:55:19;;;;;;;1.10;0.40;;;11.20;99.90;;;;;;4972241;28;20272;-65
2023/05/10 03:57:45;;;;;;;1.10;0.50;;;11.10;99.90;;;;;;4966221;28;20274;-65
2023/05/10 04:00:11;;;;;;;1.43;0.60;;;11.20;99.90;;;;;;4990709;28;20184;-65
2023/05/10 04:02:37;;;;;;;1.57;0.70;;;11.10;99.90;;;;;;4982737;28;20210;-65
2023/05/10 04:05:03;;;;;;;2.00;1.00;;;11.10;99.90;;;;;;4972624;28;20731;-65
2023/05/10 04:07:29;;;;;;;1.10;0.50;;;11.10;99.90;;;;;;4972584;28;20180;-65
2023/05/10 04:09:54;;;;;;;1.90;0.90;;;11.10;99.90;;;;;;4985033;28;20194;-65
2023/05/10 04:12:20;;;;;;;1.20;0.50;;;11.10;99.90;;;;;;4971174;28;20555;-65
2023/05/10 04:14:45;;;;;;;1.20;0.50;;;11.10;99.90;;;;;;4972004;28;20185;-65
2023/05/10 04:17:11;;;;;;;1.23;0.70;;;11.10;99.90;;;;;;4973555;28;20569;-65
2023/05/10 04:19:37;;;;;;;1.50;0.80;;;11.20;99.90;;;;;;4976876;28;20192;-65
2023/05/10 04:22:02;;;;;;;1.73;0.70;;;11.20;99.90;;;;;;4971756;28;20188;-65
2023/05/10 04:24:28;;;;;;;1.47;0.70;;;11.20;99.90;;;;;;4972146;28;20195;-65
2023/05/10 04:26:54;;;;;;;1.73;0.70;;;11.20;99.90;;;;;;4972299;28;20207;-66
2023/05/10 04:29:20;;;;;;;1.20;0.60;;;11.20;99.90;;;;;;4971031;28;20188;-65
2023/05/10 04:31:46;;;;;;;1.20;0.60;;;11.20;99.90;;;;;;4971533;28;20466;-65
2023/05/10 04:34:11;;;;;;;2.80;1.00;;;11.20;99.90;;;;;;4975740;28;20183;-66
2023/05/10 04:36:37;;;;;;;1.20;0.60;;;11.20;99.90;;;;;;4981273;28;20255;-65
2023/05/10 04:39:04;;;;;;;2.00;1.20;;;11.20;99.90;;;;;;4980889;28;20184;-65
2023/05/10 04:41:30;;;;;;;4.40;0.90;;;11.30;99.90;;;;;;4971242;28;20578;-66
2023/05/10 04:43:55;;;;;;;1.40;0.70;;;11.30;99.90;;;;;;4976137;28;20429;-65
2023/05/10 04:46:21;;;;;;;1.47;0.73;;;11.20;99.90;;;;;;4980355;28;20193;-65
2023/05/10 04:48:47;;;;;;;1.30;0.73;;;11.20;99.90;;;;;;4977176;28;20667;-66
2023/05/10 04:51:13;;;;;;;1.37;0.60;;;11.20;99.90;;;;;;4983708;28;20290;-65
2023/05/10 04:53:38;;;;;;;1.60;0.60;;;11.20;99.90;;;;;;4981877;28;20279;-65
2023/05/10 04:56:04;;;;;;;3.60;0.90;;;11.20;99.90;;;;;;4994914;28;20187;-66
2023/05/10 04:58:30;;;;;;;1.93;0.80;;;11.30;99.90;;;;;;4981420;28;20203;-65
2023/05/10 05:00:55;;;;;;;1.57;0.83;;;11.30;99.90;;;;;;4982832;28;20427;-65
2023/05/10 05:03:22;;;;;;;1.60;0.80;;;11.30;99.90;;;;;;4978550;28;20191;-65
2023/05/10 05:05:47;;;;;;;1.20;0.60;;;11.30;99.90;;;;;;4982890;28;20299;-66
2023/05/10 05:08:13;;;;;;;2.27;0.87;;;11.30;99.90;;;;;;4973653;28;20510;-65
2023/05/10 05:10:39;;;;;;;1.40;1.00;;;11.30;99.90;;;;;;4974765;28;20217;-65
2023/05/10 05:13:05;;;;;;;2.50;1.00;;;11.40;99.90;;;;;;4978101;28;20314;-66
2023/05/10 05:15:31;;;;;;;1.40;0.77;;;11.40;99.90;;;;;;4982999;28;20180;-66
2023/05/10 05:17:56;;;;;;;1.40;0.70;;;11.30;99.90;;;;;;4981308;28;20937;-66
2023/05/10 05:20:22;;;;;;;1.93;0.83;;;11.40;99.90;;;;;;4983487;28;20206;-66
2023/05/10 05:22:47;;;;;;;1.23;0.60;;;11.50;99.90;;;;;;4976695;28;20180;-65
2023/05/10 05:25:14;;;;;;;1.40;0.70;;;11.40;99.90;;;;;;4994237;28;20358;-66
2023/05/10 05:27:40;;;;;;;2.60;1.20;;;11.40;99.90;;;;;;4978729;28;20187;-66
2023/05/10 05:30:06;;;;;;;1.33;0.60;;;11.40;99.90;;;;;;4985858;28;20422;-65
2023/05/10 05:32:32;;;;;;;2.40;1.10;;;11.40;99.90;;;;;;4993312;28;20216;-65
2023/05/10 05:34:58;;;;;;;11.67;1.30;;;11.40;99.90;;;;;;4982062;28;20478;-67
2023/05/10 05:37:24;;;;;;;1.37;0.60;;;11.40;99.90;;;;;;4987330;28;20916;-66
2023/05/10 05:39:50;;;;;;;1.40;0.73;;;11.40;99.90;;;;;;4985607;28;20180;-66
2023/05/10 05:42:17;;;;;;;2.07;0.83;;;11.40;99.90;;;;;;4987765;28;21140;-66
2023/05/10 05:44:43;;;;;;;2.57;1.67;;;11.50;99.90;;;;;;4974238;28;20437;-66
2023/05/10 05:47:09;;;;;;;1.30;0.60;;;11.50;99.90;;;;;;4973209;28;20427;-66
2023/05/10 05:49:34;;;;;;;1.50;0.87;;;11.60;99.90;;;;;;4972221;28;20204;-66
2023/05/10 05:52:01;;;;;;;2.80;1.30;;;11.60;99.90;;;;;;4989094;28;20477;-66
2023/05/10 05:54:28;;;;;;;3.10;1.20;;;11.70;99.90;;;;;;4993431;28;20210;-66
2023/05/10 05:56:57;;;;;;;5.60;1.17;;;11.70;99.90;;;;;;4988277;28;20504;-66
2023/05/10 05:59:23;;;;;;;1.70;0.80;;;11.70;99.90;;;;;;4986773;28;20426;-66
2023/05/10 06:01:48;;;;;;;1.80;0.87;;;11.70;99.90;;;;;;4974759;28;20436;-67
2023/05/10 06:04:14;;;;;;;1.50;0.63;;;11.70;99.90;;;;;;4974245;28;20191;-66
2023/05/10 06:06:40;;;;;;;2.03;0.70;;;11.70;99.90;;;;;;4992522;28;20262;-66
2023/05/10 06:09:05;;;;;;;1.90;0.70;;;11.70;99.90;;;;;;4981508;28;20188;-66
2023/05/10 06:11:34;;;;;;;1.17;0.60;;;11.80;99.90;;;;;;4972899;28;20287;-66
2023/05/10 06:14:00;;;;;;;1.30;0.60;;;11.80;99.90;;;;;;4985878;28;20184;-66
2023/05/10 06:16:25;;;;;;;2.67;1.03;;;11.80;99.90;;;;;;4977379;28;20460;-66
2023/05/10 06:18:51;;;;;;;1.40;0.70;;;11.80;99.90;;;;;;4977941;28;20212;-66
2023/05/10 06:21:17;;;;;;;1.77;0.90;;;11.80;99.90;;;;;;4973892;28;20196;-66
2023/05/10 06:23:43;;;;;;;2.27;0.90;;;11.90;99.90;;;;;;4985337;28;20184;-66
2023/05/10 06:26:09;;;;;;;2.53;1.33;;;11.90;99.90;;;;;;4986122;28;20187;-66
2023/05/10 06:28:35;;;;;;;2.83;0.87;;;12.00;99.90;;;;;;4982599;28;20423;-66
2023/05/10 06:31:01;;;;;;;1.33;0.63;;;12.00;99.90;;;;;;4986691;28;20204;-66
2023/05/10 06:33:27;;;;;;;8.53;0.97;;;12.00;99.90;;;;;;4985186;28;20180;-66
2023/05/10 06:35:52;;;;;;;1.20;0.53;;;12.10;99.90;;;;;;4987879;28;20976;-66
2023/05/10 06:38:18;;;;;;;1.70;0.80;;;12.10;99.90;;;;;;4973209;28;20523;-66
2023/05/10 06:40:44;;;;;;;1.60;0.90;;;12.20;99.90;;;;;;4987001;28;20188;-66
2023/05/10 06:43:10;;;;;;;3.53;1.13;;;12.30;99.90;;;;;;4973640;28;20267;-66
2023/05/10 06:45:36;;;;;;;2.93;0.80;;;12.30;99.90;;;;;;4977861;28;20195;-66
2023/05/10 06:48:01;;;;;;;1.80;0.70;;;12.40;99.90;;;;;;4992140;28;21234;-66
2023/05/10 06:50:27;;;;;;;2.13;1.10;;;12.40;99.90;;;;;;4968488;28;20188;-66
2023/05/10 06:52:53;;;;;;;1.50;0.80;;;12.50;99.90;;;;;;4983946;28;20860;-66
2023/05/10 06:55:18;;;;;;;1.77;0.97;;;12.60;99.90;;;;;;4975603;28;20209;-66
2023/05/10 06:57:44;;;;;;;2.10;1.20;;;12.60;99.90;;;;;;4984244;28;20203;-66
2023/05/10 07:00:10;;;;;;;1.93;0.97;;;12.50;99.90;;;;;;4986043;28;20559;-66
2023/05/10 07:02:36;;;;;;;3.73;0.93;;;12.60;99.90;;;;;;4972399;28;20180;-66
2023/05/10 07:05:01;;;;;;;1.30;0.60;;;12.60;99.90;;;;;;4976293;28;20924;-66
2023/05/10 07:07:27;;;;;;;1.40;0.83;;;12.60;99.90;;;;;;4992690;28;20230;-66
2023/05/10 07:09:53;;;;;;;1.63;0.77;;;12.50;99.90;;;;;;4990488;28;20365;-66
2023/05/10 07:12:19;;;;;;;1.60;0.67;;;12.60;99.90;;;;;;4982381;28;20307;-66
2023/05/10 07:14:45;;;;;;;2.17;0.70;;;12.60;99.90;;;;;;4972321;28;20208;-66
2023/05/10 07:17:11;;;;;;;1.70;0.60;;;12.60;99.90;;;;;;4975115;28;20185;-66
2023/05/10 07:19:36;;;;;;;2.33;0.70;;;12.70;99.90;;;;;;4977282;28;20432;-66
2023/05/10 07:22:02;;;;;;;1.30;0.60;;;12.70;99.90;;;;;;4972259;28;20224;-66
2023/05/10 07:24:28;;;;;;;1.50;0.73;;;12.70;99.90;;;;;;4973255;28;20225;-66
2023/05/10 07:26:53;;;;;;;1.30;0.50;;;12.70;99.90;;;;;;4973163;28;20199;-66
2023/05/10 07:29:19;;;;;;;1.30;0.60;;;12.60;99.90;;;;;;4985954;28;20188;-66
2023/05/10 07:31:44;;;;;;;1.70;0.60;;;12.70;99.90;;;;;;4972460;28;20211;-66
2023/05/10 07:34:10;;;;;;;1.20;0.50;;;12.70;99.90;;;;;;4971941;28;20714;-66
2023/05/10 07:36:36;;;;;;;1.17;0.47;;;12.70;99.90;;;;;;4971481;28;20254;-66
2023/05/10 07:39:01;;;;;;;1.40;0.70;;;12.60;99.90;;;;;;4974807;28;20191;-67
2023/05/10 07:41:28;;;;;;;1.40;0.60;;;12.70;99.90;;;;;;4981842;28;20212;-66
2023/05/10 07:43:53;;;;;;;1.20;0.50;;;12.70;99.90;;;;;;4983253;28;20542;-66
2023/05/10 07:46:19;;;;;;;1.47;0.60;;;12.80;99.90;;;;;;4972782;28;20432;-66
2023/05/10 07:48:45;;;;;;;1.40;0.70;;;12.80;99.90;;;;;;4970745;28;20191;-66
2023/05/10 07:51:11;;;;;;;1.10;0.50;;;12.80;99.90;;;;;;4981414;28;20215;-66
2023/05/10 07:53:38;;;;;;;1.40;0.63;;;12.80;99.90;;;;;;4987916;28;20519;-66
2023/05/10 07:56:29;;;;;;;2.57;1.07;;;12.80;99.90;;;;;;4971002;28;20428;-66
2023/05/10 07:58:58;;;;;;;1.73;0.50;;;12.90;99.90;;;;;;4970456;28;20877;-66
2023/05/10 08:01:24;;;;;;;1.90;0.70;;;13.00;99.90;;;;;;4975333;28;20524;-66
2023/05/10 08:03:51;;;;;;;1.20;0.50;;;13.10;99.90;;;;;;4970694;28;20435;-67
2023/05/10 08:06:18;;;;;;;1.50;0.70;;;13.20;99.90;;;;;;4986644;28;20447;-67
2023/05/10 08:08:45;;;;;;;1.20;0.50;;;13.20;99.90;;;;;;4982079;28;20432;-67
2023/05/10 08:11:10;;;;;;;1.37;0.63;;;13.30;99.90;;;;;;4972108;28;20463;-69
2023/05/10 08:13:36;;;;;;;1.30;0.60;;;13.30;99.90;;;;;;4979524;28;20774;-66
2023/05/10 08:16:02;;;;;;;2.90;0.60;;;13.30;99.90;;;;;;4978091;28;20188;-70
2023/05/10 08:18:28;;;;;;;3.20;0.70;;;13.40;99.90;;;;;;4972327;28;20183;-70
2023/05/10 08:20:53;;;;;;;1.20;0.50;;;13.60;99.90;;;;;;4971218;28;20195;-69
2023/05/10 08:23:19;;;;;;;1.40;0.60;;;13.60;99.90;;;;;;4980439;28;20576;-70
2023/05/10 08:25:44;;;;;;;1.30;0.80;;;13.80;99.90;;;;;;4976742;28;20263;-70
2023/05/10 08:28:10;;;;;;;3.27;0.90;;;13.90;99.90;;;;;;4979988;28;20633;-68
2023/05/10 08:30:36;;;;;;;1.40;0.60;;;13.90;99.90;;;;;;4989627;28;20283;-68
2023/05/10 08:33:01;;;;;;;1.30;0.70;;;13.80;99.90;;;;;;4980491;28;20191;-70
2023/05/10 08:35:27;;;;;;;1.30;0.50;;;13.90;99.90;;;;;;4991089;28;20179;-68
2023/05/10 08:37:52;;;;;;;1.20;0.50;;;14.00;99.90;;;;;;4982822;28;20538;-68
2023/05/10 08:40:20;;;;;;;1.20;0.50;;;14.00;99.90;;;;;;4976990;28;20186;-69
2023/05/10 08:43:04;;;;;;;1.30;0.60;;;13.90;99.90;;;;;;4971647;28;20184;-69
2023/05/10 08:45:33;;;;;;;2.07;0.70;;;14.10;99.90;;;;;;4984746;28;20455;-71
2023/05/10 08:48:01;;;;;;;1.30;0.53;;;14.10;99.90;;;;;;4988817;28;20446;-72
2023/05/10 08:50:27;;;;;;;1.20;0.50;;;14.20;99.90;;;;;;4972478;28;20416;-70
2023/05/10 08:52:57;;;;;;;1.20;0.50;;;14.30;99.90;;;;;;4976705;28;20479;-68
2023/05/10 08:55:24;;;;;;;1.40;0.50;;;14.40;99.90;;;;;;4990660;28;20419;-68
2023/05/10 08:57:50;;;;;;;1.20;0.40;;;14.40;99.90;;;;;;4978946;28;20447;-68
2023/05/10 09:00:17;;;;;;;1.97;0.70;;;14.60;99.90;;;;;;4976833;28;20508;-69
2023/05/10 09:02:44;;;;;;;1.20;0.40;;;14.60;99.90;;;;;;4971417;28;20284;-68
2023/05/10 09:05:10;;;;;;;3.60;0.80;;;14.60;99.90;;;;;;4990681;28;21088;-69
2023/05/10 09:07:36;;;;;;;1.20;0.50;;;14.60;99.90;;;;;;4977200;28;21063;-68
2023/05/10 09:10:02;;;;;;;1.20;0.40;;;14.50;99.90;;;;;;4958887;28;20518;-68
2023/05/10 09:12:28;;;;;;;1.30;0.60;;;14.50;99.90;;;;;;4970700;28;20216;-69
2023/05/10 09:14:55;;;;;;;1.20;0.50;;;14.40;99.90;;;;;;4971442;28;20755;-68
2023/05/10 09:17:23;;;;;;;1.20;0.40;;;14.30;99.90;;;;;;4974114;28;20185;-69
2023/05/10 09:19:49;;;;;;;1.43;0.60;;;14.30;99.90;;;;;;4977217;28;20781;-68
2023/05/10 09:22:14;;;;;;;1.20;0.50;;;14.40;99.90;;;;;;4990579;28;20414;-68
2023/05/10 09:24:44;;;;;;;1.17;0.40;;;14.50;99.90;;;;;;4990912;28;20300;-68
2023/05/10 09:27:10;;;;;;;1.23;0.47;;;14.60;99.90;;;;;;4987373;28;20500;-68
2023/05/10 09:29:43;;;;;;;1.67;0.63;;;14.80;99.90;;;;;;4958266;28;20422;-68
2023/05/10 09:32:08;;;;;;;1.20;0.50;;;14.80;99.90;;;;;;4971634;28;20237;-69
2023/05/10 09:34:39;;;;;;;2.83;0.60;;;14.80;99.90;;;;;;4983485;28;20411;-69
2023/05/10 09:37:05;;;;;;;1.60;0.60;;;15.00;99.90;;;;;;4972518;28;20200;-69
2023/05/10 09:39:35;;;;;;;2.37;0.50;;;15.20;99.90;;;;;;4975046;28;20450;-69
2023/05/10 09:42:03;;;;;;;1.20;0.40;;;15.20;99.90;;;;;;4987552;28;20246;-69
2023/05/10 09:44:30;;;;;;;1.20;0.40;;;15.20;99.90;;;;;;4983129;28;20455;-68
2023/05/10 09:46:55;;;;;;;1.30;0.50;;;15.10;99.90;;;;;;4976066;28;20542;-69
2023/05/10 09:49:21;;;;;;;1.20;0.50;;;15.10;99.90;;;;;;4972685;28;21016;-69
2023/05/10 09:51:57;;;;;;;1.20;0.47;;;15.00;99.90;;;;;;4972653;28;20234;-68
2023/05/10 09:54:23;;;;;;;1.20;0.40;;;14.90;99.90;;;;;;4982485;28;20450;-69
2023/05/10 09:56:49;;;;;;;1.20;0.50;;;14.90;99.90;;;;;;4979110;28;20427;-69
2023/05/10 09:59:15;;;;;;;1.73;0.60;;;14.90;99.90;;;;;;4989813;28;20481;-69
2023/05/10 10:01:41;;;;;;;1.20;0.50;;;15.00;99.90;;;;;;4982818;28;20175;-68
2023/05/10 10:04:08;;;;;;;5.47;0.77;;;15.00;99.90;;;;;;4982116;28;20193;-69
2023/05/10 10:06:38;;;;;;;1.20;0.40;;;15.10;99.90;;;;;;4971738;28;20200;-69
2023/05/10 10:09:04;;;;;;;1.20;0.50;;;15.10;99.90;;;;;;4972891;28;20952;-69
2023/05/10 10:11:30;;;;;;;1.20;0.40;;;15.20;99.90;;;;;;4986367;28;21032;-69
2023/05/10 10:13:56;;;;;;;1.30;0.50;;;15.30;99.90;;;;;;4973616;28;20427;-69
2023/05/10 10:16:22;;;;;;;1.20;0.50;;;15.50;99.90;;;;;;4976177;28;20691;-69
2023/05/10 10:18:49;;;;;;;1.40;0.60;;;15.90;99.90;;;;;;4974031;28;20633;-69
2023/05/10 10:21:15;;;;;;;1.20;0.50;;;16.20;99.90;;;;;;4973878;28;20423;-69
2023/05/10 10:23:41;;;;;;;19.30;0.70;;;16.50;99.90;;;;;;4985337;28;20427;-69
2023/05/10 10:26:07;;;;;;;1.30;0.50;;;16.70;99.90;;;;;;4980223;28;20538;-68
2023/05/10 10:29:10;;;;;;;1.20;0.50;;;16.60;99.90;;;;;;4978260;28;20235;-68
2023/05/10 10:31:41;;;;;;;1.20;0.40;;;16.80;99.90;;;;;;4971551;28;20967;-69
2023/05/10 10:34:09;;;;;;;1.30;0.60;;;16.70;99.90;;;;;;4985587;28;20541;-68
2023/05/10 10:36:48;;;;;;;1.60;0.50;;;16.60;99.90;;;;;;4992047;28;20514;-69
2023/05/10 10:39:14;;;;;;;1.20;0.40;;;16.30;99.90;;;;;;4978991;28;20426;-67
2023/05/10 10:42:02;;;;;;;1.77;0.50;;;16.10;99.90;;;;;;4978635;28;20905;-69
2023/05/10 10:44:33;;;;;;;1.20;0.50;;;15.70;99.90;;;;;;4981204;28;20426;-68
2023/05/10 10:47:00;;;;;;;1.20;0.50;;;14.90;99.90;;;;;;4975822;28;20547;-69
2023/05/10 10:49:26;;;;;;;1.70;0.60;;;14.30;99.90;;;;;;4969788;28;20463;-68
2023/05/10 10:52:31;;;;;;;1.73;0.63;;;13.50;99.90;;;;;;4972012;28;20459;-65
2023/05/10 10:55:06;;;;;;;1.60;0.80;;;12.90;99.90;;;;;;4973904;28;20867;-68
2023/05/10 10:57:33;;;;;;;3.67;2.00;;;12.50;99.90;;;;;;4972831;28;20506;-68
2023/05/10 11:00:27;;;;;;;5.57;2.17;;;12.50;99.90;;;;;;4987639;28;21706;-68
2023/05/10 11:03:06;;;;;;;7.00;1.67;;;12.40;99.90;;;;;;4966648;28;20502;-68
2023/05/10 11:05:41;;;;;;;1.63;0.60;;;12.40;99.90;;;;;;4971821;28;21074;-68
2023/05/10 11:08:27;;;;;;;3.40;0.80;;;12.40;99.90;;;;;;4972129;28;20432;-68
2023/05/10 11:10:58;;;;;;;1.30;0.50;;;12.60;99.90;;;;;;4971701;28;20541;-68
2023/05/10 11:13:39;;;;;;;1.87;0.70;;;12.50;99.90;;;;;;4970282;28;20420;-68
2023/05/10 11:16:23;;;;;;;1.30;0.50;;;12.40;99.90;;;;;;4973636;28;20935;-68
2023/05/10 11:19:01;;;;;;;1.60;0.70;;;12.50;99.90;;;;;;4971351;28;20426;-68
2023/05/10 11:21:28;;;;;;;1.77;0.60;;;12.60;99.90;;;;;;4965159;28;20422;-67
2023/05/10 11:23:56;;;;;;;1.47;0.70;;;12.70;99.90;;;;;;4975402;28;20956;-68
2023/05/10 11:26:29;;;;;;;1.63;0.70;;;13.00;99.90;;;;;;4978956;28;20581;-68
2023/05/10 11:28:55;;;;;;;2.23;0.60;;;13.30;99.90;;;;;;4976717;28;20540;-68
2023/05/10 11:31:22;;;;;;;1.50;0.67;;;13.40;99.90;;;;;;4980669;28;20597;-68
2023/05/10 11:33:55;;;;;;;1.77;0.70;;;13.60;99.90;;;;;;4990149;28;20179;-68
2023/05/10 11:36:25;;;;;;;1.40;0.70;;;13.80;99.90;;;;;;4972988;28;20412;-69
2023/05/10 11:38:50;;;;;;;3.90;1.90;;;13.90;99.90;;;;;;4972787;28;20439;-68
2023/05/10 11:41:18;;;;;;;1.73;0.83;;;14.10;99.90;;;;;;4973152;28;20419;-68
2023/05/10 11:43:47;;;;;;;3.50;0.83;;;14.20;99.90;;;;;;4971975;28;20192;-69
2023/05/10 11:46:13;;;;;;;1.57;0.60;;;14.20;99.90;;;;;;4972285;28;20474;-68
2023/05/10 11:48:40;;;;;;;1.60;0.70;;;14.20;99.90;;;;;;4968951;28;20432;-69
2023/05/10 11:51:07;;;;;;;4.53;1.10;;;14.30;99.90;;;;;;4970668;28;20204;-68
2023/05/10 11:53:33;;;;;;;1.50;0.80;;;14.40;99.90;;;;;;4970906;28;20424;-69
2023/05/10 11:56:11;;;;;;;3.10;1.13;;;14.50;99.90;;;;;;4974896;28;20438;-69
2023/05/10 11:58:38;;;;;;;1.40;0.70;;;14.50;99.90;;;;;;4987198;28;20414;-69
2023/05/10 12:01:06;;;;;;;1.60;0.70;;;14.70;99.90;;;;;;4978092;28;20423;-69
2023/05/10 12:03:32;;;;;;;1.20;0.50;;;14.70;99.90;;;;;;4989677;28;20958;-69
2023/05/10 12:05:59;;;;;;;4.07;1.13;;;14.80;99.90;;;;;;4977964;28;20451;-68
2023/05/10 12:08:28;;;;;;;2.63;0.80;;;15.00;99.90;;;;;;4978969;28;20419;-68
2023/05/10 12:11:04;;;;;;;1.40;0.70;;;15.10;99.90;;;;;;4990019;28;20485;-69
2023/05/10 12:13:30;;;;;;;1.20;0.50;;;15.00;99.90;;;;;;4958128;28;20912;-69
2023/05/10 12:15:58;;;;;;;1.50;0.60;;;15.00;99.90;;;;;;4971975;28;20423;-68
2023/05/10 12:18:25;;;;;;;1.20;0.50;;;14.80;99.90;;;;;;4971245;28;20177;-69
2023/05/10 12:20:54;;;;;;;1.30;0.60;;;14.60;99.90;;;;;;4972128;28;20420;-68
2023/05/10 12:23:20;;;;;;;4.90;1.23;;;14.60;99.90;;;;;;4991190;28;20447;-68
2023/05/10 12:25:46;;;;;;;1.50;0.63;;;14.40;99.90;;;;;;4976110;28;20412;-68
2023/05/10 12:28:12;;;;;;;2.50;1.00;;;14.40;99.90;;;;;;4971554;28;20423;-68
2023/05/10 12:30:38;;;;;;;1.93;0.70;;;14.50;99.90;;;;;;4971864;28;20289;-69
2023/05/10 12:33:08;;;;;;;1.20;0.40;;;14.60;99.90;;;;;;4980653;28;20198;-68
2023/05/10 12:35:47;;;;;;;1.20;0.50;;;14.80;99.90;;;;;;4975204;28;20514;-69
2023/05/10 12:38:25;;;;;;;1.20;0.57;;;14.80;99.90;;;;;;4972382;28;20432;-68
2023/05/10 12:40:50;;;;;;;1.40;0.63;;;15.10;99.90;;;;;;4972080;28;20423;-69
2023/05/10 12:43:16;;;;;;;1.20;0.40;;;15.30;99.90;;;;;;4983414;28;20441;-69
2023/05/10 12:45:42;;;;;;;1.20;0.50;;;15.30;99.90;;;;;;4978063;28;20195;-69
2023/05/10 12:48:07;;;;;;;2.90;0.83;;;15.30;99.90;;;;;;4978720;28;20235;-69
2023/05/10 12:50:33;;;;;;;1.20;0.50;;;15.40;99.90;;;;;;4971722;28;20751;-69
2023/05/10 12:52:58;;;;;;;2.17;0.60;;;15.30;99.90;;;;;;4971552;28;20212;-69